Time;durP1;ratioP1;P1;durP2;ratioP2;P2;SDS_P1;SDS_P2;PMS_P1;PMS_P2;Temp;Humidity;BMP_temperature;BMP_pressure;BME280_temperature;BME280_humidity;BME280_pressure;Samples;Min_cycle;Max_cycle;Signal;HPM_P1;HPM_P2
2024/01/24 00:00:14;;;;;;;1.83;0.70;;;;;;;;;;10408660;28;20254;-68
2024/01/24 00:05:15;;;;;;;1.02;0.70;;;;;;;;;;10408431;28;20202;-68
2024/01/24 00:10:16;;;;;;;2.43;0.90;;;;;;;;;;10407880;28;20217;-68
2024/01/24 00:15:16;;;;;;;1.90;0.80;;;;;;;;;;10407538;28;20213;-68
2024/01/24 00:20:16;;;;;;;1.67;0.60;;;;;;;;;;10407511;28;20546;-68
2024/01/24 00:25:16;;;;;;;2.33;0.93;;;;;;;;;;10407926;28;20292;-69
2024/01/24 00:30:16;;;;;;;2.27;0.83;;;;;;;;;;10407445;28;20581;-68
2024/01/24 00:35:17;;;;;;;1.67;0.87;;;;;;;;;;10406844;28;20220;-68
2024/01/24 00:40:17;;;;;;;0.97;0.80;;;;;;;;;;10410523;28;20589;-69
2024/01/24 00:45:17;;;;;;;1.13;0.90;;;;;;;;;;10414521;28;20200;-68
2024/01/24 00:50:17;;;;;;;0.77;0.77;;;;;;;;;;10414514;28;20604;-69
2024/01/24 00:55:18;;;;;;;2.43;0.77;;;;;;;;;;10410130;28;20228;-68
2024/01/24 01:00:18;;;;;;;0.70;0.70;;;;;;;;;;10414066;28;20226;-69
2024/01/24 01:05:18;;;;;;;0.70;0.70;;;;;;;;;;10413914;28;20193;-70
2024/01/24 01:10:18;;;;;;;0.60;0.60;;;;;;;;;;10413240;28;20516;-69
2024/01/24 01:15:19;;;;;;;1.33;0.70;;;;;;;;;;10413595;28;20247;-69
2024/01/24 01:20:19;;;;;;;0.60;0.60;;;;;;;;;;10413151;28;20213;-69
2024/01/24 01:25:19;;;;;;;0.80;0.80;;;;;;;;;;10413275;28;20192;-68
2024/01/24 01:30:20;;;;;;;1.70;1.07;;;;;;;;;;10412429;28;20208;-68
2024/01/24 01:35:21;;;;;;;0.70;0.70;;;;;;;;;;10412907;28;20570;-68
2024/01/24 01:40:21;;;;;;;0.73;0.70;;;;;;;;;;10412505;28;20291;-68
2024/01/24 01:45:21;;;;;;;1.80;0.80;;;;;;;;;;10412492;28;20188;-68
2024/01/24 01:50:21;;;;;;;1.80;0.80;;;;;;;;;;10410300;28;20327;-69
2024/01/24 01:55:22;;;;;;;0.60;0.60;;;;;;;;;;10408636;28;20216;-68
2024/01/24 02:00:22;;;;;;;0.60;0.60;;;;;;;;;;10411462;28;20745;-66
2024/01/24 02:05:22;;;;;;;1.13;0.70;;;;;;;;;;10411522;28;20193;-67
2024/01/24 02:10:22;;;;;;;0.70;0.70;;;;;;;;;;10410752;28;20305;-67
2024/01/24 02:15:22;;;;;;;0.60;0.60;;;;;;;;;;10411877;28;20219;-67
2024/01/24 02:20:23;;;;;;;0.60;0.60;;;;;;;;;;10410976;28;20212;-68
2024/01/24 02:25:23;;;;;;;0.60;0.60;;;;;;;;;;10410031;28;20192;-69
2024/01/24 02:30:23;;;;;;;0.70;0.70;;;;;;;;;;10410778;28;20220;-68
2024/01/24 02:35:25;;;;;;;1.10;0.70;;;;;;;;;;10410184;28;20216;-68
2024/01/24 02:40:25;;;;;;;1.77;0.97;;;;;;;;;;10410117;28;20387;-68
2024/01/24 02:45:25;;;;;;;0.70;0.70;;;;;;;;;;10409773;28;20348;-67
2024/01/24 02:50:25;;;;;;;5.57;0.73;;;;;;;;;;10409438;28;20232;-68
2024/01/24 02:55:26;;;;;;;0.80;0.80;;;;;;;;;;10407502;28;20220;-68
2024/01/24 03:00:27;;;;;;;2.17;0.93;;;;;;;;;;10409353;28;20242;-68
2024/01/24 03:05:27;;;;;;;1.10;0.83;;;;;;;;;;10408705;28;20442;-68
2024/01/24 03:10:28;;;;;;;1.40;1.30;;;;;;;;;;10409117;28;20235;-68
2024/01/24 03:15:28;;;;;;;1.33;0.97;;;;;;;;;;10409194;28;20443;-68
2024/01/24 03:20:28;;;;;;;1.13;1.00;;;;;;;;;;10408948;28;20231;-68
2024/01/24 03:25:28;;;;;;;2.60;1.20;;;;;;;;;;10407994;28;20199;-69
2024/01/24 03:30:29;;;;;;;3.83;1.53;;;;;;;;;;10408892;28;20216;-69
2024/01/24 03:35:29;;;;;;;2.03;1.00;;;;;;;;;;10408540;28;20560;-70
2024/01/24 03:40:30;;;;;;;3.40;1.30;;;;;;;;;;10408656;28;20200;-70
2024/01/24 03:45:30;;;;;;;2.70;1.37;;;;;;;;;;10407886;28;20227;-69
2024/01/24 03:50:30;;;;;;;0.90;0.90;;;;;;;;;;10407892;28;20236;-69
2024/01/24 03:55:31;;;;;;;3.20;0.90;;;;;;;;;;10408533;28;20988;-71
2024/01/24 04:00:31;;;;;;;2.63;1.10;;;;;;;;;;10407338;28;20216;-70
2024/01/24 04:05:31;;;;;;;1.87;1.00;;;;;;;;;;10408180;28;20185;-71
2024/01/24 04:10:32;;;;;;;2.50;1.00;;;;;;;;;;10407856;28;20209;-69
2024/01/24 04:15:32;;;;;;;6.90;3.50;;;;;;;;;;10411151;28;20196;-69
2024/01/24 04:20:32;;;;;;;4.30;1.37;;;;;;;;;;10414536;28;20271;-69
2024/01/24 04:25:32;;;;;;;5.67;3.20;;;;;;;;;;10415263;28;20666;-69
2024/01/24 04:30:32;;;;;;;1.47;0.90;;;;;;;;;;10414973;28;20631;-69
2024/01/24 04:35:32;;;;;;;6.90;3.30;;;;;;;;;;10415234;28;20189;-69
2024/01/24 04:40:33;;;;;;;8.93;4.20;;;;;;;;;;10414164;28;20213;-69
2024/01/24 04:45:33;;;;;;;2.57;1.33;;;;;;;;;;10414877;28;20189;-69
2024/01/24 04:50:33;;;;;;;1.70;1.17;;;;;;;;;;10414250;28;20291;-69
2024/01/24 04:55:33;;;;;;;5.60;2.10;;;;;;;;;;10414194;28;20673;-68
2024/01/24 05:00:34;;;;;;;1.90;1.33;;;;;;;;;;10413298;28;20347;-69
2024/01/24 05:05:34;;;;;;;1.43;1.00;;;;;;;;;;10413651;28;20196;-68
2024/01/24 05:10:34;;;;;;;2.00;1.10;;;;;;;;;;10413727;28;20303;-69
2024/01/24 05:15:34;;;;;;;5.00;1.13;;;;;;;;;;10413361;28;20195;-69
2024/01/24 05:20:34;;;;;;;1.50;0.90;;;;;;;;;;10412492;28;20199;-68
2024/01/24 05:25:35;;;;;;;2.27;1.20;;;;;;;;;;10413156;28;20193;-68
2024/01/24 05:30:35;;;;;;;1.33;0.80;;;;;;;;;;10411963;28;20274;-68
2024/01/24 05:35:35;;;;;;;1.70;0.90;;;;;;;;;;10411593;28;20188;-68
2024/01/24 05:40:36;;;;;;;1.07;0.93;;;;;;;;;;10410298;28;20751;-68
2024/01/24 05:45:36;;;;;;;5.07;1.10;;;;;;;;;;10412409;28;20674;-68
2024/01/24 05:50:36;;;;;;;1.50;0.80;;;;;;;;;;10411895;28;20232;-69
2024/01/24 05:55:37;;;;;;;0.93;0.80;;;;;;;;;;10408234;28;20615;-68
2024/01/24 06:00:37;;;;;;;0.60;0.60;;;;;;;;;;10411749;28;20216;-69
2024/01/24 06:05:37;;;;;;;2.20;0.83;;;;;;;;;;10411424;28;20279;-68
2024/01/24 06:10:37;;;;;;;0.93;0.80;;;;;;;;;;10411391;28;20231;-68
2024/01/24 06:15:37;;;;;;;0.87;0.87;;;;;;;;;;10407565;28;20189;-68
2024/01/24 06:20:38;;;;;;;1.73;0.77;;;;;;;;;;10409459;28;20222;-67
2024/01/24 06:25:38;;;;;;;1.63;0.80;;;;;;;;;;10409188;28;20192;-68
2024/01/24 06:30:38;;;;;;;2.30;0.90;;;;;;;;;;10409642;28;20215;-68
2024/01/24 06:35:38;;;;;;;0.97;0.93;;;;;;;;;;10406257;28;20258;-68
2024/01/24 06:40:39;;;;;;;1.57;0.90;;;;;;;;;;10409348;28;20226;-68
2024/01/24 06:45:39;;;;;;;1.33;0.90;;;;;;;;;;10409431;28;20195;-68
2024/01/24 06:50:39;;;;;;;1.30;0.90;;;;;;;;;;10408859;28;20235;-68
2024/01/24 06:55:39;;;;;;;4.47;2.07;;;;;;;;;;10406024;28;20685;-68
2024/01/24 07:00:39;;;;;;;1.60;1.50;;;;;;;;;;10408450;28;20247;-68
2024/01/24 07:05:40;;;;;;;1.10;1.10;;;;;;;;;;10409139;28;20582;-68
2024/01/24 07:10:41;;;;;;;3.27;1.17;;;;;;;;;;10406720;28;20297;-67
2024/01/24 07:15:42;;;;;;;1.33;0.97;;;;;;;;;;10405800;28;20220;-68
2024/01/24 07:20:43;;;;;;;1.83;0.70;;;;;;;;;;10406741;28;20227;-68
2024/01/24 07:25:43;;;;;;;1.60;0.80;;;;;;;;;;10408691;28;20196;-68
2024/01/24 07:30:43;;;;;;;0.80;0.80;;;;;;;;;;10405124;28;20220;-68
2024/01/24 07:35:43;;;;;;;0.80;0.70;;;;;;;;;;10408394;28;20905;-68
2024/01/24 07:40:43;;;;;;;1.60;1.00;;;;;;;;;;10408580;28;20303;-69
2024/01/24 07:45:43;;;;;;;0.80;0.80;;;;;;;;;;10405007;28;20204;-68
2024/01/24 07:50:44;;;;;;;1.05;0.70;;;;;;;;;;10411678;28;20322;-69
2024/01/24 07:55:44;;;;;;;0.60;0.60;;;;;;;;;;10415479;28;20197;-68
2024/01/24 08:00:44;;;;;;;0.50;0.50;;;;;;;;;;10406054;28;20220;-68
2024/01/24 08:05:45;;;;;;;0.70;0.70;;;;;;;;;;10414718;28;20710;-69
2024/01/24 08:10:45;;;;;;;0.50;0.50;;;;;;;;;;10409305;28;20215;-68
2024/01/24 08:15:48;;;;;;;1.00;0.50;;;;;;;;;;10414738;28;20660;-68
2024/01/24 08:20:50;;;;;;;0.60;0.60;;;;;;;;;;10413266;28;20291;-68
2024/01/24 08:25:50;;;;;;;0.60;0.60;;;;;;;;;;10410672;28;20181;-69
2024/01/24 08:30:51;;;;;;;0.60;0.60;;;;;;;;;;10408982;28;20596;-69
2024/01/24 08:35:51;;;;;;;0.82;0.80;;;;;;;;;;10409982;28;20197;-68
2024/01/24 08:40:51;;;;;;;0.70;0.70;;;;;;;;;;10407265;28;20215;-68
2024/01/24 08:45:52;;;;;;;1.90;0.60;;;;;;;;;;10408997;28;20284;-67
2024/01/24 08:50:53;;;;;;;0.50;0.50;;;;;;;;;;10413073;28;20236;-68
2024/01/24 08:55:54;;;;;;;1.30;0.60;;;;;;;;;;10412388;28;20259;-67
2024/01/24 09:00:54;;;;;;;0.67;0.67;;;;;;;;;;10412041;28;20235;-68
2024/01/24 09:05:55;;;;;;;0.60;0.60;;;;;;;;;;10411402;28;20647;-68
2024/01/24 09:10:55;;;;;;;1.97;0.80;;;;;;;;;;10410110;28;20209;-70
2024/01/24 09:15:55;;;;;;;0.90;0.90;;;;;;;;;;10409677;28;20275;-71
2024/01/24 09:20:55;;;;;;;1.17;1.00;;;;;;;;;;10410212;28;20216;-71
2024/01/24 09:25:55;;;;;;;1.60;0.80;;;;;;;;;;10408964;28;20189;-69
2024/01/24 09:30:56;;;;;;;0.70;0.70;;;;;;;;;;10410997;28;20215;-69
2024/01/24 09:35:56;;;;;;;0.70;0.70;;;;;;;;;;10411511;28;20189;-69
2024/01/24 09:40:58;;;;;;;0.70;0.70;;;;;;;;;;10410332;28;20209;-68
2024/01/24 09:46:00;;;;;;;1.30;0.80;;;;;;;;;;10408292;28;20207;-69
2024/01/24 09:51:00;;;;;;;1.47;0.80;;;;;;;;;;10408352;28;20774;-68
2024/01/24 09:56:00;;;;;;;0.70;0.70;;;;;;;;;;10410209;28;20192;-68
2024/01/24 10:01:04;;;;;;;2.43;0.83;;;;;;;;;;10409766;28;20698;-68
2024/01/24 10:06:07;;;;;;;1.93;1.00;;;;;;;;;;10408551;28;20439;-68
2024/01/24 10:11:09;;;;;;;1.50;0.90;;;;;;;;;;10406535;28;20220;-68
2024/01/24 10:16:09;;;;;;;2.67;1.10;;;;;;;;;;10409401;28;20192;-68
2024/01/24 10:21:09;;;;;;;2.67;0.90;;;;;;;;;;10408197;28;20307;-67
2024/01/24 10:26:09;;;;;;;2.37;1.20;;;;;;;;;;10405665;28;20192;-68
2024/01/24 10:31:10;;;;;;;2.43;1.30;;;;;;;;;;10411217;28;20224;-67
2024/01/24 10:36:11;;;;;;;5.00;1.37;;;;;;;;;;10407851;28;20192;-65
2024/01/24 10:41:13;;;;;;;4.47;1.33;;;;;;;;;;10407802;28;20216;-66
2024/01/24 10:46:15;;;;;;;24.37;12.60;;;;;;;;;;10405235;28;20189;-64
2024/01/24 10:51:16;;;;;;;4.27;1.50;;;;;;;;;;10392698;28;20244;-67
2024/01/24 10:56:16;;;;;;;6.87;1.93;;;;;;;;;;10402395;28;20204;-66
2024/01/24 11:01:16;;;;;;;8.23;1.40;;;;;;;;;;10407884;28;20227;-67
2024/01/24 11:06:17;;;;;;;8.07;1.93;;;;;;;;;;10403225;28;20224;-66
2024/01/24 11:11:20;;;;;;;5.80;1.60;;;;;;;;;;10407356;28;20479;-66
2024/01/24 11:16:37;;;;;;;8.67;1.60;;;;;;;;;;10400326;28;20181;-66
2024/01/24 11:21:37;;;;;;;8.33;2.03;;;;;;;;;;10401863;28;20228;-66
2024/01/24 11:26:37;;;;;;;8.17;2.47;;;;;;;;;;10399891;28;20292;-67
2024/01/24 11:31:38;;;;;;;10.07;6.43;;;;;;;;;;10406882;28;20226;-67
2024/01/24 11:36:47;;;;;;;7.83;2.10;;;;;;;;;;10406906;28;20192;-67
2024/01/24 11:41:47;;;;;;;8.93;2.20;;;;;;;;;;10402900;28;20220;-66
2024/01/24 11:46:47;;;;;;;12.20;3.23;;;;;;;;;;10407442;28;20285;-67
2024/01/24 11:51:59;;;;;;;19.43;11.63;;;;;;;;;;10406205;28;20221;-66
2024/01/24 11:56:59;;;;;;;5.50;1.87;;;;;;;;;;10401856;28;20424;-69
2024/01/24 12:01:59;;;;;;;6.53;1.93;;;;;;;;;;10404735;28;20212;-67
2024/01/24 12:07:00;;;;;;;9.53;2.00;;;;;;;;;;10406011;28;20181;-68
2024/01/24 12:12:01;;;;;;;9.57;2.27;;;;;;;;;;10408356;28;20273;-69
2024/01/24 12:17:01;;;;;;;9.33;2.07;;;;;;;;;;10406975;28;20340;-69
2024/01/24 12:22:02;;;;;;;12.57;2.33;;;;;;;;;;10405066;28;20300;-69
2024/01/24 12:27:02;;;;;;;9.70;1.87;;;;;;;;;;10404895;28;20196;-69
2024/01/24 12:32:05;;;;;;;7.23;1.90;;;;;;;;;;10404558;28;20244;-70
2024/01/24 12:37:05;;;;;;;8.10;2.67;;;;;;;;;;10407579;28;20242;-70
2024/01/24 12:42:05;;;;;;;9.90;2.60;;;;;;;;;;10408354;28;20328;-69
2024/01/24 12:47:06;;;;;;;8.63;2.00;;;;;;;;;;10406667;28;20620;-70
2024/01/24 12:52:06;;;;;;;15.00;5.83;;;;;;;;;;10406371;28;20239;-69
2024/01/24 12:57:06;;;;;;;10.73;2.20;;;;;;;;;;10405620;28;20184;-71
2024/01/24 13:02:09;;;;;;;10.50;2.40;;;;;;;;;;10412145;28;20208;-70
2024/01/24 13:07:10;;;;;;;11.70;2.77;;;;;;;;;;10413074;28;20192;-70
2024/01/24 13:12:10;;;;;;;10.43;2.60;;;;;;;;;;10412557;28;20224;-69
2024/01/24 13:17:10;;;;;;;15.87;3.50;;;;;;;;;;10404471;28;20196;-68
2024/01/24 13:22:10;;;;;;;14.67;2.70;;;;;;;;;;10410975;28;20571;-69
2024/01/24 13:27:10;;;;;;;13.77;2.93;;;;;;;;;;10411497;28;20192;-69
2024/01/24 13:32:11;;;;;;;10.87;2.50;;;;;;;;;;10412160;28;20228;-68
2024/01/24 13:37:13;;;;;;;17.80;3.23;;;;;;;;;;10407886;28;20291;-68
2024/01/24 13:42:13;;;;;;;16.47;3.73;;;;;;;;;;10410837;28;20205;-69
2024/01/24 13:47:13;;;;;;;13.50;3.13;;;;;;;;;;10411355;28;20207;-66
2024/01/24 13:52:14;;;;;;;11.47;2.70;;;;;;;;;;10409202;28;20323;-67
2024/01/24 13:57:14;;;;;;;23.83;3.50;;;;;;;;;;10410881;28;20192;-68
2024/01/24 14:02:14;;;;;;;13.30;3.07;;;;;;;;;;10409276;28;20228;-68
2024/01/24 14:07:14;;;;;;;11.37;2.70;;;;;;;;;;10414592;28;20250;-68
2024/01/24 14:12:15;;;;;;;17.77;3.10;;;;;;;;;;10408914;28;20224;-69
2024/01/24 14:17:15;;;;;;;14.50;2.90;;;;;;;;;;10413638;28;20193;-68
2024/01/24 14:22:15;;;;;;;13.17;3.03;;;;;;;;;;10413220;28;20594;-67
2024/01/24 14:27:20;;;;;;;14.80;3.23;;;;;;;;;;10409998;28;20447;-67
2024/01/24 14:32:22;;;;;;;14.07;2.60;;;;;;;;;;10405174;28;20682;-67
2024/01/24 14:37:24;;;;;;;11.87;2.77;;;;;;;;;;10410428;28;20197;-68
2024/01/24 14:42:24;;;;;;;15.23;2.53;;;;;;;;;;10408178;28;20558;-68
2024/01/24 14:47:24;;;;;;;22.30;3.70;;;;;;;;;;10408517;28;20192;-69
2024/01/24 14:52:24;;;;;;;12.43;2.57;;;;;;;;;;10403439;28;20647;-68
2024/01/24 14:57:25;;;;;;;13.27;2.50;;;;;;;;;;10408025;28;20267;-68
2024/01/24 15:02:26;;;;;;;13.90;3.03;;;;;;;;;;10406678;28;20259;-68
2024/01/24 15:07:28;;;;;;;13.53;3.20;;;;;;;;;;10402705;28;20193;-69
2024/01/24 15:12:28;;;;;;;13.77;4.30;;;;;;;;;;10402575;28;20227;-68
2024/01/24 15:17:30;;;;;;;16.60;3.57;;;;;;;;;;10404311;28;20188;-68
2024/01/24 15:22:30;;;;;;;13.03;3.10;;;;;;;;;;10407404;28;20585;-69
2024/01/24 15:27:30;;;;;;;20.63;3.50;;;;;;;;;;10403525;28;20199;-69
2024/01/24 15:32:30;;;;;;;18.57;3.20;;;;;;;;;;10406882;28;20220;-69
2024/01/24 15:37:30;;;;;;;13.63;3.10;;;;;;;;;;10407261;28;20212;-68
2024/01/24 15:42:40;;;;;;;21.33;3.67;;;;;;;;;;10404559;28;20261;-68
2024/01/24 15:47:40;;;;;;;18.93;3.60;;;;;;;;;;10404425;28;20197;-69
2024/01/24 15:52:40;;;;;;;13.63;3.27;;;;;;;;;;10406664;28;20248;-68
2024/01/24 15:57:41;;;;;;;15.80;2.97;;;;;;;;;;10408518;28;20256;-68
2024/01/24 16:02:41;;;;;;;13.07;2.67;;;;;;;;;;10408537;28;20334;-68
2024/01/24 16:07:41;;;;;;;15.80;3.47;;;;;;;;;;10404365;28;20197;-68
2024/01/24 16:12:42;;;;;;;17.83;3.73;;;;;;;;;;10411630;28;20234;-68
2024/01/24 16:17:42;;;;;;;17.07;4.13;;;;;;;;;;10416001;28;20207;-68
2024/01/24 16:22:43;;;;;;;15.77;3.63;;;;;;;;;;10415077;28;20219;-68
2024/01/24 16:27:43;;;;;;;20.17;3.40;;;;;;;;;;10411016;28;20788;-68
2024/01/24 16:32:44;;;;;;;20.43;3.83;;;;;;;;;;10415745;28;20319;-68
2024/01/24 16:37:44;;;;;;;14.20;3.50;;;;;;;;;;10415503;28;20663;-68
2024/01/24 16:42:45;;;;;;;19.33;4.13;;;;;;;;;;10410152;28;20220;-68
2024/01/24 16:47:45;;;;;;;14.93;3.53;;;;;;;;;;10414956;28;20267;-68
2024/01/24 16:52:46;;;;;;;16.27;3.40;;;;;;;;;;10413757;28;20702;-68
2024/01/24 16:57:46;;;;;;;13.70;3.13;;;;;;;;;;10414369;28;20670;-68
2024/01/24 17:02:46;;;;;;;16.33;3.70;;;;;;;;;;10410059;28;20239;-67
2024/01/24 17:07:46;;;;;;;15.40;5.43;;;;;;;;;;10413375;28;20462;-68
2024/01/24 17:12:48;;;;;;;16.57;3.70;;;;;;;;;;10410878;28;20805;-68
2024/01/24 17:17:48;;;;;;;15.83;3.50;;;;;;;;;;10412934;28;20570;-67
2024/01/24 17:22:48;;;;;;;13.40;3.57;;;;;;;;;;10410875;28;20219;-67
2024/01/24 17:27:49;;;;;;;15.47;3.13;;;;;;;;;;10410965;28;20189;-68
2024/01/24 17:32:49;;;;;;;22.60;3.83;;;;;;;;;;10413422;28;20224;-67
2024/01/24 17:37:49;;;;;;;17.93;3.53;;;;;;;;;;10413140;28;20219;-67
2024/01/24 17:42:50;;;;;;;19.30;3.93;;;;;;;;;;10409143;28;20204;-67
2024/01/24 17:47:50;;;;;;;14.90;3.33;;;;;;;;;;10411969;28;20193;-67
2024/01/24 17:52:50;;;;;;;16.57;4.07;;;;;;;;;;10404561;28;20236;-67
2024/01/24 17:57:50;;;;;;;16.57;4.30;;;;;;;;;;10411448;28;20189;-67
2024/01/24 18:02:50;;;;;;;16.73;2.90;;;;;;;;;;10408229;28;20212;-67
2024/01/24 18:07:51;;;;;;;20.53;3.87;;;;;;;;;;10411425;28;20303;-67
2024/01/24 18:12:56;;;;;;;166.40;70.10;;;;;;;;;;10410844;28;20682;-67
2024/01/24 18:17:59;;;;;;;20.50;4.77;;;;;;;;;;10407329;28;20196;-67
2024/01/24 18:22:59;;;;;;;14.97;3.83;;;;;;;;;;10405599;28;20231;-67
2024/01/24 18:28:00;;;;;;;20.00;3.70;;;;;;;;;;10409276;28;20271;-66
2024/01/24 18:33:00;;;;;;;13.57;3.73;;;;;;;;;;10406942;28;20221;-66
2024/01/24 18:38:00;;;;;;;12.63;3.47;;;;;;;;;;10407619;28;20177;-67
2024/01/24 18:43:01;;;;;;;20.70;5.43;;;;;;;;;;10407479;28;20710;-66
2024/01/24 18:48:02;;;;;;;15.40;3.87;;;;;;;;;;10408961;28;20195;-67
2024/01/24 18:53:02;;;;;;;15.20;3.57;;;;;;;;;;10403927;28;20235;-67
2024/01/24 18:58:02;;;;;;;21.77;3.77;;;;;;;;;;10407113;28;20201;-67
2024/01/24 19:03:02;;;;;;;17.37;3.30;;;;;;;;;;10403257;28;20709;-67
2024/01/24 19:08:03;;;;;;;19.97;3.63;;;;;;;;;;10398551;28;20664;-66
2024/01/24 19:13:03;;;;;;;17.73;3.80;;;;;;;;;;10387009;28;20854;-67
2024/01/24 19:18:03;;;;;;;19.95;4.65;;;;;;;;;;10401703;28;20188;-67
2024/01/24 19:23:04;;;;;;;23.27;4.30;;;;;;;;;;10407866;28;20273;-67
2024/01/24 19:28:04;;;;;;;21.43;4.03;;;;;;;;;;10404670;28;20235;-67
2024/01/24 19:33:04;;;;;;;14.67;3.60;;;;;;;;;;10399473;28;20221;-67
2024/01/24 19:38:05;;;;;;;18.43;4.30;;;;;;;;;;10403570;28;20189;-67
2024/01/24 19:43:05;;;;;;;23.67;4.40;;;;;;;;;;10399236;28;20215;-67
2024/01/24 19:48:05;;;;;;;23.93;4.10;;;;;;;;;;10403738;28;20192;-67
2024/01/24 19:53:06;;;;;;;23.17;4.33;;;;;;;;;;10418529;28;20235;-67
2024/01/24 19:58:07;;;;;;;18.10;3.90;;;;;;;;;;10422482;28;20359;-67
2024/01/24 20:03:07;;;;;;;18.77;3.40;;;;;;;;;;10422426;28;20640;-68
2024/01/24 20:08:07;;;;;;;13.33;2.90;;;;;;;;;;10421359;28;20646;-68
2024/01/24 20:13:08;;;;;;;25.90;4.43;;;;;;;;;;10417412;28;20241;-67
2024/01/24 20:18:08;;;;;;;16.90;3.93;;;;;;;;;;10420393;28;20235;-66
2024/01/24 20:23:08;;;;;;;17.93;3.30;;;;;;;;;;10418594;28;20286;-67
2024/01/24 20:28:08;;;;;;;21.40;4.40;;;;;;;;;;10411993;28;20192;-67
2024/01/24 20:33:08;;;;;;;15.77;3.17;;;;;;;;;;10416073;28;20216;-67
2024/01/24 20:38:09;;;;;;;18.80;4.07;;;;;;;;;;10420004;28;20188;-67
2024/01/24 20:43:09;;;;;;;18.23;4.07;;;;;;;;;;10418541;28;20756;-67
2024/01/24 20:48:09;;;;;;;17.37;3.23;;;;;;;;;;10413652;28;20572;-67
2024/01/24 20:53:09;;;;;;;20.97;3.40;;;;;;;;;;10409077;28;20247;-67
2024/01/24 20:58:09;;;;;;;12.77;3.50;;;;;;;;;;10412290;28;20188;-66
2024/01/24 21:03:10;;;;;;;18.90;3.67;;;;;;;;;;10413442;28;20698;-67
2024/01/24 21:08:10;;;;;;;20.80;4.47;;;;;;;;;;10411623;28;20250;-67
2024/01/24 21:13:10;;;;;;;16.30;3.27;;;;;;;;;;10411338;28;20221;-67
2024/01/24 21:18:10;;;;;;;20.43;3.70;;;;;;;;;;10412882;28;20606;-67
2024/01/24 21:23:10;;;;;;;19.60;3.30;;;;;;;;;;10413144;28;20251;-66
2024/01/24 21:28:10;;;;;;;16.73;3.90;;;;;;;;;;10408974;28;20200;-65
2024/01/24 21:33:11;;;;;;;14.83;3.13;;;;;;;;;;10412753;28;20221;-67
2024/01/24 21:38:12;;;;;;;15.37;3.23;;;;;;;;;;10412162;28;20203;-66
2024/01/24 21:43:13;;;;;;;14.90;3.23;;;;;;;;;;10412102;28;20246;-67
2024/01/24 21:48:13;;;;;;;13.43;3.70;;;;;;;;;;10408426;28;20227;-67
2024/01/24 21:53:13;;;;;;;15.53;3.60;;;;;;;;;;10410653;28;20284;-67
2024/01/24 21:58:13;;;;;;;14.07;2.77;;;;;;;;;;10411810;28;20295;-66
2024/01/24 22:03:14;;;;;;;24.03;4.10;;;;;;;;;;10410849;28;20599;-67
2024/01/24 22:08:17;;;;;;;11.50;3.10;;;;;;;;;;10407113;28;20223;-68
2024/01/24 22:13:18;;;;;;;17.87;3.40;;;;;;;;;;10409393;28;20227;-67
2024/01/24 22:18:18;;;;;;;15.70;2.97;;;;;;;;;;10410806;28;20635;-67
2024/01/24 22:23:18;;;;;;;18.93;3.40;;;;;;;;;;10410820;28;20303;-67
2024/01/24 22:28:19;;;;;;;18.40;3.73;;;;;;;;;;10407180;28;20193;-67
2024/01/24 22:33:19;;;;;;;16.53;3.17;;;;;;;;;;10410812;28;20217;-67
2024/01/24 22:38:19;;;;;;;17.70;3.50;;;;;;;;;;10410266;28;20185;-67
2024/01/24 22:43:19;;;;;;;27.00;4.10;;;;;;;;;;10407772;28;20692;-66
2024/01/24 22:48:20;;;;;;;20.20;4.47;;;;;;;;;;10409782;28;20180;-67
2024/01/24 22:53:22;;;;;;;17.10;3.30;;;;;;;;;;10410285;28;20240;-66
2024/01/24 22:58:22;;;;;;;17.30;3.70;;;;;;;;;;10410307;28;20250;-67
2024/01/24 23:03:22;;;;;;;21.50;4.20;;;;;;;;;;10406231;28;20285;-67
2024/01/24 23:08:22;;;;;;;15.97;3.37;;;;;;;;;;10409716;28;20654;-68
2024/01/24 23:13:23;;;;;;;25.97;3.30;;;;;;;;;;10409334;28;20639;-67
2024/01/24 23:18:23;;;;;;;16.53;3.23;;;;;;;;;;10409010;28;20200;-67
2024/01/24 23:23:23;;;;;;;22.23;3.77;;;;;;;;;;10405477;28;20266;-67
2024/01/24 23:28:23;;;;;;;15.50;4.17;;;;;;;;;;10408628;28;20195;-67
2024/01/24 23:33:24;;;;;;;25.50;3.53;;;;;;;;;;10408789;28;20259;-67
2024/01/24 23:38:24;;;;;;;13.60;3.33;;;;;;;;;;10408803;28;20216;-68
2024/01/24 23:43:24;;;;;;;22.17;3.90;;;;;;;;;;10405023;28;20204;-68
2024/01/24 23:48:25;;;;;;;23.40;3.87;;;;;;;;;;10408449;28;20666;-68
2024/01/24 23:53:25;;;;;;;16.40;3.67;;;;;;;;;;10408210;28;20664;-68
2024/01/24 23:58:25;;;;;;;17.60;4.13;;;;;;;;;;10408220;28;20204;-68
